Time;durP1;ratioP1;P1;durP2;ratioP2;P2;SDS_P1;SDS_P2;PMS_P1;PMS_P2;Temp;Humidity;BMP_temperature;BMP_pressure;BME280_temperature;BME280_humidity;BME280_pressure;Samples;Min_cycle;Max_cycle;Signal;HPM_P1;HPM_P2
2023/08/23 00:00:01;;;;;;;3.83;2.83;;;;;;;20.24;85.75;100803.88;5052987;28;20201;-74
2023/08/23 00:02:28;;;;;;;3.43;2.53;;;;;;;20.28;85.72;100797.47;5052215;28;20221;-73
2023/08/23 00:04:54;;;;;;;3.93;2.77;;;;;;;20.30;85.47;100808.00;5053003;28;20564;-74
2023/08/23 00:07:21;;;;;;;2.63;2.43;;;;;;;20.30;85.42;100810.66;5052742;28;20229;-74
2023/08/23 00:09:47;;;;;;;2.77;2.57;;;;;;;20.17;84.66;100821.88;5052801;28;20205;-74
2023/08/23 00:12:15;;;;;;;3.63;2.93;;;;;;;20.18;84.78;100833.38;5052436;28;20708;-74
2023/08/23 00:14:42;;;;;;;4.07;2.47;;;;;;;20.12;85.55;100816.00;5052706;28;20668;-74
2023/08/23 00:17:09;;;;;;;3.10;2.83;;;;;;;20.08;85.57;100821.50;5051731;28;20205;-74
2023/08/23 00:19:35;;;;;;;3.47;2.60;;;;;;;20.16;85.62;100808.72;5052498;28;20204;-74
2023/08/23 00:22:02;;;;;;;4.07;3.00;;;;;;;20.11;86.21;100811.59;5052364;28;20232;-74
2023/08/23 00:24:29;;;;;;;3.17;2.50;;;;;;;20.15;85.93;100809.66;5052166;28;20271;-74
2023/08/23 00:26:55;;;;;;;8.17;3.40;;;;;;;20.16;85.91;100803.44;5052045;28;20225;-74
2023/08/23 00:29:23;;;;;;;4.47;4.10;;;;;;;20.12;85.20;100816.00;5052286;28;20205;-74
2023/08/23 00:31:50;;;;;;;5.37;2.87;;;;;;;20.13;85.96;100809.72;5051904;28;20603;-74
2023/08/23 00:34:16;;;;;;;3.37;2.63;;;;;;;20.11;85.75;100811.59;5051913;28;20202;-74
2023/08/23 00:36:43;;;;;;;2.87;2.67;;;;;;;20.02;86.89;100797.06;5052325;28;20204;-74
2023/08/23 00:39:09;;;;;;;3.40;3.10;;;;;;;20.00;87.06;100790.13;5052146;28;20202;-74
2023/08/23 00:41:37;;;;;;;4.83;3.23;;;;;;;19.97;87.57;100782.34;5052280;28;20231;-74
2023/08/23 00:44:04;;;;;;;5.70;2.90;;;;;;;19.99;87.09;100776.00;5051697;28;20671;-74
2023/08/23 00:46:32;;;;;;;8.50;2.50;;;;;;;20.06;87.15;100771.25;5052049;28;20201;-74
2023/08/23 00:48:58;;;;;;;3.43;2.60;;;;;;;20.02;87.16;100783.81;5051477;28;20229;-74
2023/08/23 00:51:25;;;;;;;4.43;4.03;;;;;;;19.96;87.12;100778.84;5051925;28;20676;-74
2023/08/23 00:53:52;;;;;;;3.07;2.87;;;;;;;19.96;85.79;100826.53;5051716;28;20202;-74
2023/08/23 00:56:18;;;;;;;5.93;2.87;;;;;;;20.01;86.91;100803.28;5051964;28;20201;-74
2023/08/23 00:58:45;;;;;;;6.83;3.10;;;;;;;20.02;87.18;100798.88;5051720;28;20225;-74
2023/08/23 01:01:12;;;;;;;4.33;2.77;;;;;;;20.06;86.94;100796.88;5051579;28;20681;-74
2023/08/23 01:03:39;;;;;;;3.50;2.80;;;;;;;20.10;86.55;100795.78;5051406;28;20206;-74
2023/08/23 01:06:17;;;;;;;3.93;2.63;;;;;;;20.09;86.38;100805.53;5052106;28;20219;-74
2023/08/23 01:08:56;;;;;;;4.10;2.80;;;;;;;20.11;86.14;100811.59;5051858;28;20234;-74
2023/08/23 01:11:28;;;;;;;3.30;3.10;;;;;;;20.11;86.52;100816.91;5051558;28;20663;-74
2023/08/23 01:14:02;;;;;;;3.93;3.03;;;;;;;20.08;86.84;100806.50;5051810;28;20209;-74
2023/08/23 01:16:30;;;;;;;3.10;2.80;;;;;;;20.06;87.04;100800.41;5051799;28;20223;-74
2023/08/23 01:19:00;;;;;;;3.47;3.00;;;;;;;20.00;86.51;100806.88;5051521;28;20200;-74
2023/08/23 01:21:33;;;;;;;3.47;2.90;;;;;;;19.99;86.57;100807.81;5051296;28;20308;-74
2023/08/23 01:24:08;;;;;;;5.03;3.23;;;;;;;20.01;86.53;100807.72;5051417;28;20584;-74
2023/08/23 01:26:34;;;;;;;3.50;3.00;;;;;;;20.01;86.29;100819.19;5051109;28;20262;-74
2023/08/23 01:29:01;;;;;;;3.87;3.30;;;;;;;20.03;86.27;100827.06;5051652;28;20250;-74
2023/08/23 01:31:32;;;;;;;3.93;3.47;;;;;;;19.92;85.82;100824.09;5051333;28;20336;-74
2023/08/23 01:34:06;;;;;;;3.20;3.00;;;;;;;19.95;86.59;100816.00;5051089;28;20208;-74
2023/08/23 01:36:33;;;;;;;4.37;3.97;;;;;;;19.88;86.54;100812.84;5051618;28;20212;-74
2023/08/23 01:39:02;;;;;;;3.10;2.90;;;;;;;19.89;86.67;100817.19;5051100;28;20216;-74
2023/08/23 01:41:29;;;;;;;3.80;3.40;;;;;;;19.87;87.17;100803.16;5051070;28;20232;-74
2023/08/23 01:43:55;;;;;;;3.70;3.40;;;;;;;19.87;87.21;100795.22;5051558;28;20209;-74
2023/08/23 01:46:22;;;;;;;7.47;3.80;;;;;;;19.79;86.54;100818.59;5051110;28;20221;-74
2023/08/23 01:48:48;;;;;;;4.00;3.40;;;;;;;19.80;86.86;100821.16;5050856;28;20225;-74
2023/08/23 01:51:15;;;;;;;3.87;3.40;;;;;;;19.84;87.27;100805.94;5051099;28;20667;-74
2023/08/23 01:53:41;;;;;;;4.03;3.63;;;;;;;19.83;86.57;100812.19;5050930;28;20217;-74
2023/08/23 01:56:09;;;;;;;5.63;4.23;;;;;;;19.75;86.74;100814.38;5051119;28;20205;-74
2023/08/23 01:58:36;;;;;;;5.03;3.73;;;;;;;19.80;86.80;100818.53;5051435;28;20600;-74
2023/08/23 02:01:02;;;;;;;3.97;3.67;;;;;;;19.73;86.59;100818.91;5051249;28;20212;-74
2023/08/23 02:03:29;;;;;;;4.03;3.50;;;;;;;19.73;87.14;100808.31;5050641;28;20630;-74
2023/08/23 02:05:55;;;;;;;4.10;3.70;;;;;;;19.74;87.21;100804.72;5051202;28;20213;-75
2023/08/23 02:08:22;;;;;;;4.93;4.43;;;;;;;19.46;87.38;100816.66;5051118;28;20262;-74
2023/08/23 02:10:48;;;;;;;4.37;3.97;;;;;;;19.33;88.95;100787.31;5050965;28;20297;-74
2023/08/23 02:13:16;;;;;;;5.30;4.20;;;;;;;19.37;89.42;100761.56;5051102;28;20240;-74
2023/08/23 02:15:44;;;;;;;5.20;3.70;;;;;;;19.39;89.40;100763.19;5051377;28;20210;-74
2023/08/23 02:18:10;;;;;;;4.03;3.80;;;;;;;19.43;89.04;100766.53;5050414;28;20656;-74
2023/08/23 02:20:37;;;;;;;6.23;5.47;;;;;;;19.44;89.07;100776.19;5050960;28;20209;-74
2023/08/23 02:23:04;;;;;;;4.00;3.63;;;;;;;19.52;88.67;100775.78;5050626;28;20715;-74
2023/08/23 02:25:30;;;;;;;4.30;3.97;;;;;;;19.38;88.73;100776.50;5051277;28;20214;-74
2023/08/23 02:27:57;;;;;;;5.00;4.60;;;;;;;19.37;89.25;100766.84;5050376;28;20229;-74
2023/08/23 02:30:25;;;;;;;4.60;3.87;;;;;;;19.40;89.41;100769.34;5051050;28;20267;-74
2023/08/23 02:32:51;;;;;;;4.50;4.10;;;;;;;19.30;89.32;100771.56;5050366;28;20221;-74
2023/08/23 02:35:18;;;;;;;4.37;3.87;;;;;;;19.34;89.50;100761.69;5053572;28;20199;-73
2023/08/23 02:37:44;;;;;;;4.37;3.97;;;;;;;19.28;89.32;100764.66;5054578;28;20212;-74
2023/08/23 02:40:12;;;;;;;4.47;4.13;;;;;;;19.31;89.82;100761.88;5054331;28;20209;-74
2023/08/23 02:42:38;;;;;;;4.00;3.70;;;;;;;19.24;89.97;100748.91;5054536;28;20221;-74
2023/08/23 02:45:06;;;;;;;4.97;4.57;;;;;;;18.99;89.96;100762.53;5054432;28;20217;-74
2023/08/23 02:47:33;;;;;;;4.83;4.43;;;;;;;18.91;90.59;100740.88;5053550;28;20197;-74
2023/08/23 02:50:00;;;;;;;4.77;4.37;;;;;;;18.81;90.83;100737.81;5054058;28;20702;-74
2023/08/23 02:52:26;;;;;;;5.50;4.77;;;;;;;18.82;90.96;100728.09;5054352;28;20308;-74
2023/08/23 02:54:53;;;;;;;5.50;4.90;;;;;;;18.76;91.21;100723.91;5054324;28;20205;-74
2023/08/23 02:57:19;;;;;;;5.53;4.83;;;;;;;18.69;92.04;100711.94;5053796;28;20201;-74
2023/08/23 02:59:46;;;;;;;5.57;5.07;;;;;;;18.49;92.03;100709.38;5054274;28;20200;-73
2023/08/23 03:02:12;;;;;;;5.27;4.83;;;;;;;18.51;92.66;100699.59;5053457;28;20233;-74
2023/08/23 03:04:40;;;;;;;4.80;4.40;;;;;;;18.48;92.58;100702.41;5054418;28;20231;-74
2023/08/23 03:07:07;;;;;;;5.43;5.03;;;;;;;17.99;94.97;100681.75;5054198;28;20205;-73
2023/08/23 03:09:33;;;;;;;6.40;5.20;;;;;;;17.77;97.33;100624.59;5053736;28;20233;-73
2023/08/23 03:12:00;;;;;;;5.77;5.23;;;;;;;18.01;96.85;100613.88;5053741;28;20232;-74
2023/08/23 03:14:26;;;;;;;5.30;4.90;;;;;;;17.66;98.18;100600.50;5054001;28;20216;-74
2023/08/23 03:16:53;;;;;;;5.97;5.37;;;;;;;17.58;98.71;100586.78;5053522;28;20212;-73
2023/08/23 03:19:19;;;;;;;5.33;5.03;;;;;;;17.57;99.93;100564.81;5053456;28;20208;-74
2023/08/23 03:21:47;;;;;;;6.00;5.57;;;;;;;17.73;99.46;100561.47;5053991;28;20224;-73
2023/08/23 03:24:14;;;;;;;5.97;5.47;;;;;;;17.86;99.13;100575.84;5053930;28;20557;-73
2023/08/23 03:26:40;;;;;;;7.43;5.50;;;;;;;17.75;99.24;100583.38;5053880;28;20209;-73
2023/08/23 03:29:07;;;;;;;8.80;6.07;;;;;;;17.60;100.00;100572.59;5054708;28;20315;-73
2023/08/23 03:31:34;;;;;;;6.40;5.80;;;;;;;17.74;100.00;100569.31;5053941;28;20612;-73
2023/08/23 03:34:00;;;;;;;5.70;5.20;;;;;;;17.84;99.94;100575.06;5053052;28;20686;-73
2023/08/23 03:36:27;;;;;;;6.10;5.60;;;;;;;17.93;99.79;100584.31;5053707;28;20216;-73
2023/08/23 03:38:54;;;;;;;6.70;6.00;;;;;;;17.86;99.00;100604.88;5053326;28;20203;-74
2023/08/23 03:41:21;;;;;;;7.03;6.53;;;;;;;17.83;99.29;100597.06;5053252;28;20220;-74
2023/08/23 03:43:47;;;;;;;7.50;6.80;;;;;;;17.59;100.00;100593.78;5053066;28;20209;-73
2023/08/23 03:46:14;;;;;;;7.93;7.33;;;;;;;17.37;100.00;100570.16;5053381;28;20217;-73
2023/08/23 03:48:41;;;;;;;7.43;6.87;;;;;;;17.27;100.00;100549.44;5052823;28;20778;-73
2023/08/23 03:51:07;;;;;;;8.47;7.67;;;;;;;17.27;100.00;100530.13;5053093;28;20210;-73
2023/08/23 03:53:34;;;;;;;8.03;7.33;;;;;;;17.44;100.00;100530.22;5052930;28;20206;-74
2023/08/23 03:56:02;;;;;;;6.60;6.13;;;;;;;17.49;100.00;100551.09;5052881;28;20208;-73
2023/08/23 03:58:29;;;;;;;7.23;6.67;;;;;;;17.51;100.00;100557.16;5045013;28;20723;-73
2023/08/23 04:00:55;;;;;;;8.33;7.70;;;;;;;17.51;100.00;100564.25;5053038;28;20203;-73
2023/08/23 04:03:22;;;;;;;8.40;7.63;;;;;;;17.50;100.00;100559.88;5052606;28;20224;-74
2023/08/23 04:05:48;;;;;;;8.57;7.93;;;;;;;17.41;100.00;100566.44;5053111;28;20211;-73
2023/08/23 04:08:16;;;;;;;9.33;8.53;;;;;;;17.33;100.00;100572.06;5052628;28;20231;-73
2023/08/23 04:10:46;;;;;;;9.80;9.03;;;;;;;17.30;100.00;100566.06;5052848;28;20199;-73
2023/08/23 04:13:14;;;;;;;7.90;7.40;;;;;;;17.44;100.00;100566.28;5052249;28;20265;-74
2023/08/23 04:15:41;;;;;;;8.83;8.23;;;;;;;17.29;100.00;100567.84;5052907;28;20227;-73
2023/08/23 04:18:08;;;;;;;9.37;8.57;;;;;;;17.36;100.00;100565.78;5051913;28;20219;-73
2023/08/23 04:20:34;;;;;;;10.30;9.50;;;;;;;17.23;100.00;100565.50;5052576;28;20207;-73
2023/08/23 04:23:01;;;;;;;9.03;8.20;;;;;;;17.23;100.00;100563.69;5052430;28;20286;-73
2023/08/23 04:25:27;;;;;;;8.90;8.10;;;;;;;17.31;100.00;100566.00;5052587;28;20200;-73
2023/08/23 04:27:54;;;;;;;8.77;8.10;;;;;;;17.31;100.00;100570.41;5052207;28;20201;-74
2023/08/23 04:30:22;;;;;;;10.20;8.10;;;;;;;17.48;100.00;100581.06;5052381;28;20220;-73
2023/08/23 04:32:48;;;;;;;8.67;7.90;;;;;;;17.46;100.00;100593.47;5051809;28;20224;-73
2023/08/23 04:35:15;;;;;;;9.07;8.40;;;;;;;17.50;100.00;100600.31;5052281;28;20670;-73
2023/08/23 04:37:41;;;;;;;8.47;7.93;;;;;;;17.51;100.00;100607.31;5052010;28;20201;-73
2023/08/23 04:40:09;;;;;;;9.40;8.70;;;;;;;17.45;100.00;100610.25;5051995;28;20208;-73
2023/08/23 04:42:36;;;;;;;10.20;9.30;;;;;;;17.43;100.00;100607.66;5051708;28;20237;-73
2023/08/23 04:45:03;;;;;;;10.73;10.00;;;;;;;17.36;100.00;100597.44;5052148;28;20709;-73
2023/08/23 04:47:31;;;;;;;11.10;10.20;;;;;;;17.45;100.00;100608.44;5051342;28;20207;-73
2023/08/23 04:49:58;;;;;;;8.17;7.43;;;;;;;17.61;100.00;100602.47;5052150;28;20228;-73
2023/08/23 04:52:24;;;;;;;8.63;7.77;;;;;;;17.75;100.00;100609.78;5052048;28;20228;-73
2023/08/23 04:54:51;;;;;;;7.63;6.97;;;;;;;17.84;100.00;100631.38;5051854;28;20206;-74
2023/08/23 04:57:17;;;;;;;7.10;6.60;;;;;;;18.02;100.00;100634.94;5051077;28;20207;-74
2023/08/23 04:59:44;;;;;;;8.37;7.77;;;;;;;17.96;100.00;100653.72;5052234;28;20205;-73
2023/08/23 05:02:10;;;;;;;7.93;7.27;;;;;;;18.04;100.00;100662.13;5051113;28;20238;-73
2023/08/23 05:04:38;;;;;;;7.30;6.67;;;;;;;18.21;100.00;100663.13;5051925;28;20657;-73
2023/08/23 05:07:05;;;;;;;7.43;6.83;;;;;;;18.34;100.00;100668.69;5051953;28;20243;-73
2023/08/23 05:09:31;;;;;;;6.37;5.90;;;;;;;18.44;100.00;100680.53;5051260;28;20609;-73
2023/08/23 05:11:58;;;;;;;6.83;6.20;;;;;;;18.41;98.77;100704.47;5051359;28;20224;-73
2023/08/23 05:14:24;;;;;;;9.03;8.30;;;;;;;18.26;98.65;100725.41;5051624;28;20226;-73
2023/08/23 05:16:51;;;;;;;7.27;6.73;;;;;;;18.28;99.11;100719.19;5051893;28;20203;-73
2023/08/23 05:19:18;;;;;;;8.33;7.63;;;;;;;18.21;100.00;100702.75;5051140;28;20215;-73
2023/08/23 05:21:46;;;;;;;7.03;6.50;;;;;;;18.22;100.00;100693.91;5051605;28;20225;-73
2023/08/23 05:24:13;;;;;;;7.47;6.77;;;;;;;18.21;100.00;100697.47;5051290;28;20674;-74
2023/08/23 05:26:39;;;;;;;6.93;6.33;;;;;;;18.11;100.00;100688.25;5051352;28;20211;-73
2023/08/23 05:29:06;;;;;;;7.40;6.90;;;;;;;18.22;100.00;100680.69;5051927;28;20242;-74
2023/08/23 05:31:32;;;;;;;7.80;7.20;;;;;;;18.26;100.00;100677.84;5051625;28;20231;-74
2023/08/23 05:33:59;;;;;;;8.00;7.40;;;;;;;18.31;100.00;100674.13;5050783;28;20601;-74
2023/08/23 05:36:25;;;;;;;8.00;7.30;;;;;;;18.31;100.00;100692.63;5051312;28;20213;-75
2023/08/23 05:38:53;;;;;;;6.97;6.57;;;;;;;18.23;100.00;100704.38;5051464;28;20203;-73
2023/08/23 05:41:19;;;;;;;10.80;9.60;;;;;;;18.05;100.00;100703.47;5050761;28;20724;-73
2023/08/23 05:43:46;;;;;;;9.87;8.97;;;;;;;18.05;100.00;100692.88;5051536;28;20204;-73
2023/08/23 05:46:12;;;;;;;9.33;8.70;;;;;;;18.04;100.00;100690.34;5051251;28;20212;-73
2023/08/23 05:48:39;;;;;;;9.00;8.37;;;;;;;18.03;100.00;100697.38;5046779;28;20250;-73
2023/08/23 05:51:06;;;;;;;8.30;7.60;;;;;;;18.00;100.00;100691.41;5050873;28;20212;-73
2023/08/23 05:53:32;;;;;;;8.13;7.53;;;;;;;18.06;100.00;100709.63;5050980;28;20210;-74
2023/08/23 05:56:00;;;;;;;8.53;7.83;;;;;;;17.77;100.00;100711.75;5051183;28;20583;-74
2023/08/23 05:58:26;;;;;;;8.27;7.53;;;;;;;17.49;100.00;100688.34;5050605;28;20212;-73
2023/08/23 06:00:55;;;;;;;8.80;8.10;;;;;;;17.23;100.00;100668.38;5050980;28;20212;-73
2023/08/23 06:03:21;;;;;;;11.13;8.13;;;;;;;17.32;100.00;100649.50;5050441;28;20256;-73
2023/08/23 06:05:52;;;;;;;7.63;7.03;;;;;;;17.37;100.00;100650.16;5051171;28;20215;-73
2023/08/23 06:08:19;;;;;;;8.47;7.87;;;;;;;17.24;100.00;100656.88;5051844;28;20215;-73
2023/08/23 06:10:45;;;;;;;8.20;7.60;;;;;;;17.33;100.00;100653.84;5055003;28;20203;-73
2023/08/23 06:13:13;;;;;;;8.30;7.40;;;;;;;17.63;100.00;100658.72;5054487;28;20238;-73
2023/08/23 06:15:39;;;;;;;8.40;7.80;;;;;;;17.89;100.00;100673.41;5046989;28;20206;-73
2023/08/23 06:18:06;;;;;;;8.07;7.47;;;;;;;18.03;100.00;100699.19;5054694;28;20208;-73
2023/08/23 06:20:33;;;;;;;8.80;8.10;;;;;;;17.83;100.00;100724.69;5054902;28;20215;-73
2023/08/23 06:22:59;;;;;;;9.90;8.93;;;;;;;17.80;100.00;100719.53;5053084;28;20228;-73
2023/08/23 06:25:26;;;;;;;8.60;8.00;;;;;;;17.94;100.00;100724.25;5054139;28;20623;-72
2023/08/23 06:27:53;;;;;;;9.73;9.07;;;;;;;17.95;100.00;100727.72;5060586;28;20216;-74
2023/08/23 06:30:21;;;;;;;9.53;8.93;;;;;;;18.11;100.00;100719.97;5060868;28;20594;-74
2023/08/23 06:32:49;;;;;;;9.70;8.80;;;;;;;18.28;100.00;100727.13;5062531;28;20234;-76
2023/08/23 06:35:16;;;;;;;10.87;9.97;;;;;;;18.28;100.00;100721.84;5063864;28;20213;-75
2023/08/23 06:37:43;;;;;;;11.03;10.20;;;;;;;18.08;100.00;100691.91;5060227;28;20203;-74
2023/08/23 06:40:12;;;;;;;9.50;8.70;;;;;;;18.28;100.00;100684.84;5059734;28;20580;-73
2023/08/23 06:42:39;;;;;;;10.60;9.77;;;;;;;18.36;100.00;100680.91;5054134;28;20232;-73
2023/08/23 06:45:08;;;;;;;10.77;9.97;;;;;;;18.45;100.00;100690.16;5054741;28;20220;-73
2023/08/23 06:47:37;;;;;;;9.93;9.03;;;;;;;18.58;100.00;100682.53;5053258;28;20271;-73
2023/08/23 06:50:04;;;;;;;10.87;9.90;;;;;;;18.54;100.00;100678.31;5052214;28;20240;-74
2023/08/23 06:52:30;;;;;;;11.63;10.73;;;;;;;18.46;100.00;100681.31;5053632;28;20228;-72
2023/08/23 06:54:57;;;;;;;11.87;11.07;;;;;;;18.67;100.00;100695.28;5054307;28;20217;-72
2023/08/23 06:57:28;;;;;;;13.03;11.40;;;;;;;18.62;100.00;100695.50;5053881;28;20209;-73
2023/08/23 06:59:55;;;;;;;12.50;11.50;;;;;;;18.68;100.00;100699.66;5054080;28;20660;-72
2023/08/23 07:02:22;;;;;;;12.37;11.57;;;;;;;18.97;100.00;100711.47;5053199;28;20232;-73
2023/08/23 07:04:50;;;;;;;12.83;11.93;;;;;;;18.95;100.00;100742.44;5054064;28;20215;-74
2023/08/23 07:07:16;;;;;;;10.80;10.00;;;;;;;19.18;100.00;100748.38;5053595;28;20662;-74
2023/08/23 07:09:43;;;;;;;13.13;11.93;;;;;;;19.37;100.00;100764.22;5045313;28;20228;-74
2023/08/23 07:12:09;;;;;;;14.37;12.97;;;;;;;19.30;99.65;100786.63;5053693;28;20231;-74
2023/08/23 07:14:36;;;;;;;13.13;12.13;;;;;;;19.47;98.63;100807.81;5053873;28;20247;-74
2023/08/23 07:17:02;;;;;;;14.70;13.40;;;;;;;19.47;98.09;100822.84;5052989;28;20221;-73
2023/08/23 07:19:29;;;;;;;13.30;12.30;;;;;;;19.38;98.87;100814.41;5053078;28;20211;-74
2023/08/23 07:21:57;;;;;;;14.17;13.00;;;;;;;19.11;100.00;100795.47;5053315;28;20563;-74
2023/08/23 07:24:23;;;;;;;13.67;12.57;;;;;;;19.15;100.00;100789.09;5053232;28;20213;-74
2023/08/23 07:26:50;;;;;;;13.80;12.37;;;;;;;19.36;97.80;100823.38;5053369;28;20212;-74
2023/08/23 07:29:16;;;;;;;12.73;11.63;;;;;;;19.50;97.52;100835.91;5053370;28;20221;-74
2023/08/23 07:31:43;;;;;;;13.30;12.20;;;;;;;19.45;96.22;100855.53;5053222;28;20780;-74
2023/08/23 07:34:10;;;;;;;12.03;11.23;;;;;;;19.51;95.59;100877.38;5050056;28;20203;-74
2023/08/23 07:36:36;;;;;;;13.57;12.47;;;;;;;19.55;94.72;100894.81;5051714;28;20209;-74
2023/08/23 07:39:04;;;;;;;12.90;11.83;;;;;;;19.34;94.94;100907.28;5048023;28;20235;-74
2023/08/23 07:41:31;;;;;;;11.73;10.73;;;;;;;19.60;94.98;100903.38;5045802;28;20233;-74
2023/08/23 07:43:57;;;;;;;12.20;11.10;;;;;;;19.52;94.64;100916.13;5046938;28;20686;-74
2023/08/23 07:46:25;;;;;;;12.03;10.77;;;;;;;19.60;94.49;100914.84;5044973;28;20209;-74
2023/08/23 07:48:51;;;;;;;12.50;11.53;;;;;;;19.51;95.61;100910.00;5051459;28;20650;-74
2023/08/23 07:51:18;;;;;;;13.17;11.93;;;;;;;19.43;95.21;100918.31;5052581;28;20213;-74
2023/08/23 07:53:44;;;;;;;12.07;11.17;;;;;;;19.58;93.06;100935.25;5052483;28;20940;-74
2023/08/23 07:56:12;;;;;;;12.93;12.00;;;;;;;19.81;92.19;100955.34;5052859;28;20209;-73
2023/08/23 07:58:39;;;;;;;12.67;11.43;;;;;;;19.83;91.25;100985.25;5046495;28;20209;-74
2023/08/23 08:01:05;;;;;;;12.07;10.90;;;;;;;20.00;90.23;101004.78;5044634;28;20221;-74
2023/08/23 08:03:32;;;;;;;11.97;10.97;;;;;;;19.93;88.79;101025.41;5046217;28;20229;-74
2023/08/23 08:05:58;;;;;;;13.30;12.30;;;;;;;19.83;89.32;101017.03;5046899;28;20590;-74
2023/08/23 08:08:25;;;;;;;13.40;11.13;;;;;;;19.86;90.29;101010.75;5052435;28;20675;-74
2023/08/23 08:10:51;;;;;;;12.23;11.23;;;;;;;20.00;90.13;101004.78;5052991;28;20237;-74
2023/08/23 08:13:19;;;;;;;10.63;9.93;;;;;;;20.18;90.19;101003.88;5048524;28;20956;-74
2023/08/23 08:15:46;;;;;;;13.73;12.70;;;;;;;20.21;88.44;101008.16;5049949;28;20202;-74
2023/08/23 08:18:12;;;;;;;13.00;11.53;;;;;;;20.31;86.28;101059.78;5050675;28;20205;-74
2023/08/23 08:20:39;;;;;;;11.53;10.43;;;;;;;20.42;86.44;101083.13;5050720;28;20669;-74
2023/08/23 08:23:05;;;;;;;12.97;11.67;;;;;;;20.36;86.69;101078.97;5049346;28;20232;-73
2023/08/23 08:25:32;;;;;;;11.67;10.50;;;;;;;20.56;86.93;101077.13;5050443;28;20197;-73
2023/08/23 08:27:58;;;;;;;16.53;11.67;;;;;;;20.53;86.59;101079.91;5051518;28;20212;-73
2023/08/23 08:30:26;;;;;;;12.63;11.77;;;;;;;20.48;85.47;101090.78;5051858;28;20225;-73
2023/08/23 08:32:52;;;;;;;10.90;9.97;;;;;;;20.69;84.86;101115.38;5050236;28;20598;-73
2023/08/23 08:35:19;;;;;;;11.10;10.30;;;;;;;20.83;85.08;101109.38;5052402;28;20211;-73
2023/08/23 08:37:45;;;;;;;12.80;11.50;;;;;;;20.93;85.52;101107.09;5051872;28;20202;-74
2023/08/23 08:40:12;;;;;;;11.80;10.80;;;;;;;20.99;85.41;101098.81;5052183;28;20205;-74
2023/08/23 08:42:39;;;;;;;10.67;9.77;;;;;;;21.07;84.27;101120.53;5052232;28;20228;-74
2023/08/23 08:45:07;;;;;;;11.43;10.53;;;;;;;21.14;85.11;101126.38;5052116;28;20202;-74
2023/08/23 08:47:35;;;;;;;10.77;9.93;;;;;;;21.06;82.67;101161.28;5050923;28;20216;-74
2023/08/23 08:50:01;;;;;;;10.63;9.70;;;;;;;21.12;82.65;101160.13;5051977;28;20229;-73
2023/08/23 08:52:29;;;;;;;10.17;9.47;;;;;;;21.08;80.46;101199.22;5045549;28;20237;-73
2023/08/23 08:54:58;;;;;;;10.97;9.83;;;;;;;21.25;82.05;101186.88;5044502;28;20821;-73
2023/08/23 08:57:27;;;;;;;9.60;8.80;;;;;;;21.45;80.19;101217.75;5050126;28;20197;-73
2023/08/23 08:59:56;;;;;;;9.47;8.80;;;;;;;21.36;81.54;101222.56;5048591;28;20201;-74
2023/08/23 09:02:25;;;;;;;11.27;10.23;;;;;;;21.36;79.22;101243.81;5048590;28;20232;-74
2023/08/23 09:04:53;;;;;;;11.37;10.30;;;;;;;21.52;79.79;101233.28;5051907;28;20263;-73
2023/08/23 09:07:20;;;;;;;10.30;9.20;;;;;;;21.60;79.79;101225.81;5051737;28;20205;-73
2023/08/23 09:09:46;;;;;;;9.47;8.70;;;;;;;21.85;78.85;101247.56;5051267;28;20235;-73
2023/08/23 09:12:13;;;;;;;13.20;8.17;;;;;;;21.88;77.59;101265.97;5051368;28;20229;-74
2023/08/23 09:14:40;;;;;;;8.27;7.57;;;;;;;22.03;76.63;101299.72;5051378;28;20225;-73
2023/08/23 09:17:07;;;;;;;9.60;8.60;;;;;;;22.12;74.59;101352.44;5050983;28;20216;-73
2023/08/23 09:19:36;;;;;;;9.00;8.30;;;;;;;22.35;73.20;101385.81;5051654;28;20208;-74
2023/08/23 09:22:04;;;;;;;8.00;7.13;;;;;;;22.47;74.98;101365.66;5051685;28;20646;-74
2023/08/23 09:24:31;;;;;;;8.10;7.50;;;;;;;22.19;74.13;101379.56;5051395;28;20213;-74
2023/08/23 09:26:57;;;;;;;8.60;7.73;;;;;;;22.11;75.80;101348.03;5051961;28;20201;-74
2023/08/23 09:29:24;;;;;;;9.13;8.23;;;;;;;22.29;75.41;101332.94;5051427;28;20217;-74
2023/08/23 09:31:51;;;;;;;7.77;7.17;;;;;;;22.35;74.88;101340.59;5051710;28;20252;-74
2023/08/23 09:34:18;;;;;;;9.37;8.40;;;;;;;22.36;73.93;101360.09;5047330;28;20213;-74
2023/08/23 09:36:44;;;;;;;9.03;7.53;;;;;;;22.24;73.10;101392.59;5051516;28;20214;-74
2023/08/23 09:39:13;;;;;;;8.40;7.50;;;;;;;22.25;72.65;101399.69;5049976;28;20312;-74
2023/08/23 09:41:41;;;;;;;5.97;5.47;;;;;;;22.33;71.43;101424.09;5050397;28;20263;-74
2023/08/23 09:44:09;;;;;;;6.70;4.67;;;;;;;22.46;67.20;101491.69;5053673;28;20296;-74
2023/08/23 09:46:39;;;;;;;5.87;3.87;;;;;;;22.32;64.26;101598.81;5055184;28;20202;-74
2023/08/23 09:49:06;;;;;;;8.00;3.63;;;;;;;22.57;65.81;101624.16;5055274;28;20244;-74
2023/08/23 09:51:36;;;;;;;4.07;3.33;;;;;;;22.76;64.86;101622.31;5054899;28;20235;-74
2023/08/23 09:54:11;;;;;;;4.30;3.83;;;;;;;22.95;66.71;101613.34;5055234;28;20279;-74
2023/08/23 09:56:43;;;;;;;6.80;6.20;;;;;;;23.10;69.43;101535.34;5055195;28;20212;-74
2023/08/23 09:59:10;;;;;;;6.10;5.60;;;;;;;22.93;69.32;101498.97;5055385;28;20244;-74
2023/08/23 10:01:37;;;;;;;6.57;6.00;;;;;;;22.75;68.51;101508.75;5054762;28;20228;-74
2023/08/23 10:04:04;;;;;;;5.10;4.67;;;;;;;23.09;70.33;101468.84;5054606;28;20213;-74
2023/08/23 10:06:31;;;;;;;6.20;5.60;;;;;;;23.18;68.47;101479.00;5055227;28;20674;-74
2023/08/23 10:08:58;;;;;;;6.10;5.47;;;;;;;23.29;67.48;101505.03;5054854;28;20202;-74
2023/08/23 10:11:26;;;;;;;5.60;5.20;;;;;;;23.34;67.38;101506.50;5055033;28;20236;-74
2023/08/23 10:13:58;;;;;;;6.33;5.73;;;;;;;23.37;67.40;101516.16;5054362;28;20216;-74
2023/08/23 10:16:27;;;;;;;7.57;5.67;;;;;;;22.73;66.33;101558.56;5055103;28;20214;-74
2023/08/23 10:18:54;;;;;;;5.47;5.07;;;;;;;22.93;67.37;101517.59;5054307;28;20209;-74
2023/08/23 10:21:21;;;;;;;6.47;4.80;;;;;;;22.97;69.41;101487.19;5054391;28;20209;-74
2023/08/23 10:23:48;;;;;;;5.37;4.87;;;;;;;23.03;66.73;101503.78;5054712;28;20201;-74
2023/08/23 10:26:19;;;;;;;5.23;4.83;;;;;;;22.85;64.73;101549.06;5054357;28;20586;-74
2023/08/23 10:28:49;;;;;;;5.40;4.50;;;;;;;22.68;66.02;101543.78;5055098;28;20201;-75
2023/08/23 10:31:22;;;;;;;5.83;3.50;;;;;;;22.85;67.77;101493.16;5053174;28;20222;-74
2023/08/23 10:33:54;;;;;;;4.53;3.73;;;;;;;22.68;68.22;101478.09;5058623;28;20205;-75
2023/08/23 10:36:28;;;;;;;4.80;4.03;;;;;;;22.80;67.94;101476.59;5058706;28;20214;-74
2023/08/23 10:38:55;;;;;;;4.67;4.30;;;;;;;22.92;65.59;101499.88;5054191;28;20205;-74
2023/08/23 10:41:23;;;;;;;4.10;3.70;;;;;;;22.91;65.79;101522.16;5056568;28;20197;-74
2023/08/23 10:43:49;;;;;;;5.10;3.83;;;;;;;22.95;66.01;101522.81;5055104;28;20711;-74
2023/08/23 10:46:19;;;;;;;4.23;3.57;;;;;;;23.26;65.17;101526.53;5057791;28;20655;-74
2023/08/23 10:48:46;;;;;;;4.00;3.70;;;;;;;23.36;63.76;101557.91;5057910;28;20257;-74
2023/08/23 10:51:15;;;;;;;4.37;3.90;;;;;;;23.36;64.86;101557.03;5051780;28;20283;-74
2023/08/23 10:53:42;;;;;;;4.50;3.87;;;;;;;23.46;62.71;101594.72;5053965;28;20205;-75
2023/08/23 10:56:09;;;;;;;6.70;3.73;;;;;;;23.10;62.60;101620.59;5045591;28;20224;-75
2023/08/23 10:58:36;;;;;;;4.90;3.93;;;;;;;22.95;61.49;101632.00;5054277;28;20209;-75
2023/08/23 11:01:04;;;;;;;3.53;3.10;;;;;;;22.93;62.85;101632.09;5053199;28;20554;-75
2023/08/23 11:03:32;;;;;;;5.90;4.23;;;;;;;22.87;63.29;101610.22;5053545;28;20239;-75
2023/08/23 11:05:59;;;;;;;5.63;3.83;;;;;;;22.90;64.51;101581.66;5052923;28;20706;-75
2023/08/23 11:08:26;;;;;;;3.97;3.57;;;;;;;22.89;64.26;101573.72;5051390;28;20202;-74
2023/08/23 11:10:52;;;;;;;4.07;3.67;;;;;;;22.90;65.33;101543.53;5053491;28;20225;-74
2023/08/23 11:13:19;;;;;;;3.10;2.90;;;;;;;23.28;66.27;101488.19;5053665;28;20241;-75
2023/08/23 11:15:46;;;;;;;4.83;3.67;;;;;;;23.47;62.17;101527.13;5052638;28;20259;-75
2023/08/23 11:18:13;;;;;;;3.87;3.47;;;;;;;23.88;62.17;101554.16;5043943;28;20237;-74